createdAt,value
2023-05-24T00:01:57.060Z,100528.63
2023-05-24T00:04:25.401Z,100529.56
2023-05-24T00:06:55.079Z,100534.00
2023-05-24T00:09:22.221Z,100529.66
2023-05-24T00:11:48.813Z,100520.13
2023-05-24T00:14:15.543Z,100509.56
2023-05-24T00:16:42.263Z,100507.00
2023-05-24T00:19:11.472Z,100501.81
2023-05-24T00:21:38.388Z,100504.53
2023-05-24T00:24:05.237Z,100506.41
2023-05-24T00:26:31.847Z,100508.31
2023-05-24T00:28:58.444Z,100503.22
2023-05-24T00:31:25.046Z,100505.94
2023-05-24T00:33:51.697Z,100502.50
2023-05-24T00:36:18.276Z,100503.50
2023-05-24T00:38:44.810Z,100498.41
2023-05-24T00:41:11.691Z,100491.50
2023-05-24T00:43:38.489Z,100486.38
2023-05-24T00:46:32.115Z,100488.47
2023-05-24T00:49:00.409Z,100483.94
2023-05-24T00:51:28.060Z,100480.56
2023-05-24T00:53:55.204Z,100479.69
2023-05-24T00:56:22.379Z,100483.25
2023-05-24T00:58:50.833Z,100481.56
2023-05-24T01:01:17.531Z,100480.63
2023-05-24T01:03:44.326Z,100483.34
2023-05-24T01:06:15.965Z,100473.78
2023-05-24T01:08:51.668Z,100473.88
2023-05-24T01:11:29.361Z,100463.56
2023-05-24T01:14:02.017Z,100470.63
2023-05-24T01:17:05.781Z,100473.72
2023-05-24T01:19:39.010Z,100472.69
2023-05-24T01:22:12.117Z,100471.75
2023-05-24T01:24:53.925Z,100480.00
2023-05-24T01:27:22.796Z,100478.34
2023-05-24T01:29:53.534Z,100478.50
2023-05-24T01:32:20.853Z,100480.28
2023-05-24T01:34:47.735Z,100466.41
2023-05-24T01:37:14.656Z,100468.16
2023-05-24T01:39:42.862Z,100467.41
2023-05-24T01:42:18.345Z,100480.66
2023-05-24T01:45:03.374Z,100482.59
2023-05-24T01:47:51.966Z,100476.59
2023-05-24T01:50:42.654Z,100473.13
2023-05-24T01:53:13.115Z,100475.59
2023-05-24T01:55:40.644Z,100480.84
2023-05-24T01:58:09.837Z,100469.56
2023-05-24T02:00:38.970Z,100466.97
2023-05-24T02:03:06.801Z,100457.44
2023-05-24T02:05:33.928Z,100475.91
2023-05-24T02:08:00.854Z,100472.47
2023-05-24T02:10:27.495Z,100467.38
2023-05-24T02:12:54.045Z,100475.25
2023-05-24T02:15:20.758Z,100476.09
2023-05-24T02:17:48.210Z,100480.53
2023-05-24T02:20:14.853Z,100476.03
2023-05-24T02:32:38.463Z,100458.22
2023-05-24T02:35:05.696Z,100451.97
2023-05-24T02:37:32.228Z,100451.09
2023-05-24T02:39:58.754Z,100449.41
2023-05-24T02:42:25.569Z,100453.03
2023-05-24T02:44:52.860Z,100459.28
2023-05-24T02:47:19.770Z,100447.13
2023-05-24T02:49:46.357Z,100445.50
2023-05-24T02:52:13.769Z,100452.63
2023-05-24T02:54:40.530Z,100453.63
2023-05-24T02:57:07.195Z,100449.25
2023-05-24T02:59:33.691Z,100453.69
2023-05-24T03:02:00.583Z,100452.69
2023-05-24T03:04:27.256Z,100435.94
2023-05-24T03:06:53.769Z,100448.06
2023-05-24T03:09:20.420Z,100440.94
2023-05-24T03:11:46.916Z,100441.63
2023-05-24T03:14:13.640Z,100452.03
2023-05-24T03:16:40.276Z,100454.50
2023-05-24T03:19:09.821Z,100450.78
2023-05-24T03:21:36.832Z,100447.09
2023-05-24T03:24:03.881Z,100442.53
2023-05-24T03:26:30.440Z,100444.09
2023-05-24T03:28:57.045Z,100457.97
2023-05-24T03:31:26.477Z,100436.63
2023-05-24T03:33:53.295Z,100441.69
2023-05-24T03:36:21.147Z,100447.66
2023-05-24T03:38:47.644Z,100448.38
2023-05-24T03:41:14.253Z,100450.00
2023-05-24T03:43:40.778Z,100444.66
2023-05-24T03:46:07.426Z,100436.66
2023-05-24T03:48:33.987Z,100444.41
2023-05-24T03:51:00.698Z,100461.84
2023-05-24T03:53:28.436Z,100452.09
2023-05-24T03:55:55.184Z,100451.06
2023-05-24T03:58:22.410Z,100444.88
2023-05-24T04:00:49.118Z,100441.28
2023-05-24T04:03:15.855Z,100437.63
2023-05-24T04:05:42.488Z,100442.84
2023-05-24T04:08:09.067Z,100438.34
2023-05-24T04:10:36.983Z,100442.63
2023-05-24T04:13:03.733Z,100442.53
2023-05-24T04:15:31.024Z,100445.88
2023-05-24T04:17:57.828Z,100445.78
2023-05-24T04:20:25.569Z,100453.63
2023-05-24T04:22:52.544Z,100446.47
2023-05-24T04:25:19.277Z,100452.63
2023-05-24T04:27:48.787Z,100456.00
2023-05-24T04:30:16.635Z,100462.16
2023-05-24T04:32:47.505Z,100459.53
2023-05-24T04:35:14.457Z,100462.09
2023-05-24T04:37:41.262Z,100459.38
2023-05-24T04:40:10.392Z,100457.50
2023-05-24T04:42:36.904Z,100458.31
2023-05-24T04:45:03.609Z,100454.59
2023-05-24T04:47:30.173Z,100446.47
2023-05-24T04:49:56.804Z,100456.88
2023-05-24T04:52:23.401Z,100467.38
2023-05-24T04:54:51.104Z,100454.09
2023-05-24T04:57:17.622Z,100455.78
2023-05-24T04:59:44.454Z,100446.09
2023-05-24T05:02:11.225Z,100449.56
2023-05-24T05:04:38.027Z,100448.75
2023-05-24T05:07:04.902Z,100453.06
2023-05-24T05:09:31.471Z,100454.84
2023-05-24T05:11:58.554Z,100453.06
2023-05-24T05:14:25.390Z,100461.81
2023-05-24T05:16:52.099Z,100461.81
2023-05-24T05:19:19.025Z,100472.31
2023-05-24T05:21:45.911Z,100469.66
2023-05-24T05:24:14.979Z,100472.16
2023-05-24T05:26:41.796Z,100466.81
2023-05-24T05:29:08.328Z,100477.22
2023-05-24T05:31:34.917Z,100470.97
2023-05-24T05:34:01.497Z,100477.03
2023-05-24T05:36:28.240Z,100471.59
2023-05-24T05:38:54.931Z,100473.13
2023-05-24T05:41:22.138Z,100478.25
2023-05-24T05:43:48.712Z,100477.16
2023-05-24T05:46:16.103Z,100471.69
2023-05-24T05:48:44.278Z,100477.69
2023-05-24T05:51:12.888Z,100480.13
2023-05-24T05:53:39.405Z,100479.16
2023-05-24T05:56:06.256Z,100472.84
2023-05-24T05:58:32.776Z,100480.50
2023-05-24T06:00:59.381Z,100477.69
2023-05-24T06:03:26.173Z,100476.59
2023-05-24T06:05:52.960Z,100474.63
2023-05-24T06:08:19.629Z,100472.50
2023-05-24T06:10:46.314Z,100476.69
2023-05-24T06:13:13.752Z,100471.91
2023-05-24T06:15:40.707Z,100475.91
2023-05-24T06:18:07.362Z,100480.84
2023-05-24T06:20:33.990Z,100472.59
2023-05-24T06:23:00.628Z,100481.88
2023-05-24T06:25:30.721Z,100482.41
2023-05-24T06:27:57.324Z,100475.78
2023-05-24T06:30:24.054Z,100472.97
2023-05-24T06:32:50.806Z,100482.31
2023-05-24T06:35:17.342Z,100489.88
2023-05-24T06:37:44.376Z,100489.50
2023-05-24T06:40:11.501Z,100491.72
2023-05-24T06:42:38.991Z,100495.69
2023-05-24T06:45:06.117Z,100501.47
2023-05-24T06:47:32.834Z,100508.13
2023-05-24T06:50:00.978Z,100500.75
2023-05-24T06:52:27.568Z,100500.41
2023-05-24T06:54:54.213Z,100498.34
2023-05-24T06:57:21.516Z,100496.19
2023-05-24T06:59:48.071Z,100499.31
2023-05-24T07:02:14.766Z,100503.19
2023-05-24T07:04:41.468Z,100495.63
2023-05-24T07:07:12.657Z,100511.81
2023-05-24T07:09:41.316Z,100512.84
2023-05-24T07:12:09.221Z,100522.03
2023-05-24T07:14:36.128Z,100525.09
2023-05-24T07:17:02.888Z,100529.06
2023-05-24T07:19:29.979Z,100524.31
2023-05-24T07:21:56.900Z,100528.47
2023-05-24T07:24:24.161Z,100527.44
2023-05-24T07:26:51.892Z,100530.00
2023-05-24T07:29:18.543Z,100516.59
2023-05-24T07:31:45.328Z,100522.59
2023-05-24T07:34:11.917Z,100513.50
2023-05-24T07:36:38.397Z,100514.78
2023-05-24T07:39:06.331Z,100512.50
2023-05-24T07:41:33.463Z,100525.28
2023-05-24T07:44:00.151Z,100517.78
2023-05-24T07:46:26.904Z,100531.38
2023-05-24T07:48:53.610Z,100531.63
2023-05-24T07:51:21.608Z,100531.31
2023-05-24T07:53:48.148Z,100514.97
2023-05-24T07:56:15.134Z,100516.47
2023-05-24T07:58:43.008Z,100512.78
2023-05-24T08:01:09.710Z,100515.31
2023-05-24T08:03:37.349Z,100516.00
2023-05-24T08:06:04.184Z,100521.94
2023-05-24T08:08:30.972Z,100511.94
2023-05-24T08:10:57.439Z,100521.50
2023-05-24T08:13:24.565Z,100512.28
2023-05-24T08:15:51.060Z,100518.41
2023-05-24T08:18:17.596Z,100525.28
2023-05-24T08:20:44.245Z,100524.25
2023-05-24T08:23:11.029Z,100517.00
2023-05-24T08:25:38.029Z,100527.53
2023-05-24T08:28:04.610Z,100527.44
2023-05-24T08:30:32.377Z,100522.97
2023-05-24T08:35:36.012Z,100522.22
2023-05-24T08:38:02.580Z,100524.97
2023-05-24T08:40:29.126Z,100521.38
2023-05-24T08:42:59.299Z,100522.88
2023-05-24T08:45:26.698Z,100518.72
2023-05-24T08:47:54.841Z,100523.41
2023-05-24T08:50:22.163Z,100526.06
2023-05-24T08:52:49.330Z,100532.22
2023-05-24T08:55:16.685Z,100534.13
2023-05-24T08:57:45.879Z,100532.53
2023-05-24T09:00:13.792Z,100535.91
2023-05-24T09:02:42.463Z,100536.81
2023-05-24T09:05:16.409Z,100539.72
2023-05-24T09:07:46.518Z,100535.41
2023-05-24T09:10:13.273Z,100538.25
2023-05-24T09:12:44.251Z,100539.72
2023-05-24T09:15:11.036Z,100537.72
2023-05-24T09:17:38.870Z,100537.25
2023-05-24T09:20:10.335Z,100543.94
2023-05-24T09:22:42.113Z,100544.22
2023-05-24T09:25:10.960Z,100545.44
2023-05-24T09:27:38.476Z,100540.66
2023-05-24T09:30:10.493Z,100541.88
2023-05-24T09:32:37.557Z,100537.78
2023-05-24T09:35:08.256Z,100540.22
2023-05-24T09:37:36.521Z,100539.97
2023-05-24T09:40:06.856Z,100539.97
2023-05-24T09:42:33.660Z,100542.75
2023-05-24T09:45:08.541Z,100549.41
2023-05-24T09:47:37.085Z,100540.78
2023-05-24T09:50:07.696Z,100538.38
2023-05-24T09:52:37.539Z,100544.16
2023-05-24T09:55:15.347Z,100545.44
2023-05-24T09:58:01.464Z,100555.16
2023-05-24T10:00:28.248Z,100555.38
2023-05-24T10:03:03.138Z,100556.78
2023-05-24T10:05:31.366Z,100555.94
2023-05-24T10:07:58.900Z,100554.59
2023-05-24T10:10:29.181Z,100554.09
2023-05-24T10:12:56.824Z,100561.31
2023-05-24T10:15:23.921Z,100552.81
2023-05-24T10:17:51.471Z,100553.91
2023-05-24T10:20:18.613Z,100553.03
2023-05-24T10:22:47.530Z,100556.66
2023-05-24T10:25:21.658Z,100566.34
2023-05-24T10:27:50.724Z,100562.00
2023-05-24T10:30:29.780Z,100553.38
2023-05-24T10:32:57.505Z,100559.44
2023-05-24T10:35:25.185Z,100556.88
2023-05-24T10:37:52.444Z,100557.75
2023-05-24T10:40:20.941Z,100555.91
2023-05-24T10:42:48.430Z,100558.34
2023-05-24T10:45:37.701Z,100565.84
2023-05-24T10:48:13.892Z,100556.88
2023-05-24T10:50:42.539Z,100553.25
2023-05-24T10:53:16.201Z,100551.66
2023-05-24T10:55:59.610Z,100550.09
2023-05-24T10:58:48.474Z,100549.97
2023-05-24T11:01:29.741Z,100551.44
2023-05-24T11:04:10.630Z,100543.16
2023-05-24T11:06:48.116Z,100552.34
2023-05-24T11:09:15.855Z,100552.44
2023-05-24T11:11:46.460Z,100547.50
2023-05-24T11:14:14.754Z,100542.56
2023-05-24T11:16:45.637Z,100553.50
2023-05-24T11:19:32.634Z,100556.31
2023-05-24T11:21:59.802Z,100550.41
2023-05-24T11:24:27.362Z,100547.25
2023-05-24T11:26:54.150Z,100544.19
2023-05-24T11:29:22.797Z,100555.22
2023-05-24T11:31:55.308Z,100548.56
2023-05-24T11:34:22.282Z,100559.72
2023-05-24T11:36:49.305Z,100545.41
2023-05-24T11:39:16.480Z,100551.50
2023-05-24T11:41:43.718Z,100548.69
2023-05-24T11:44:11.874Z,100549.78
2023-05-24T11:46:39.844Z,100551.84
2023-05-24T11:49:07.138Z,100552.19
2023-05-24T11:51:35.238Z,100555.31
2023-05-24T11:54:01.879Z,100551.53
2023-05-24T11:56:33.791Z,100543.28
2023-05-24T11:59:07.026Z,100555.97
2023-05-24T12:01:33.633Z,100548.81
2023-05-24T12:04:01.075Z,100555.84
2023-05-24T12:06:38.799Z,100557.78
2023-05-24T12:09:08.581Z,100551.28
2023-05-24T12:11:39.964Z,100553.94
2023-05-24T12:14:07.962Z,100551.88
2023-05-24T12:16:36.479Z,100557.69
2023-05-24T12:19:09.480Z,100558.75
2023-05-24T12:21:43.541Z,100560.69
2023-05-24T12:24:22.071Z,100557.09
2023-05-24T12:26:48.804Z,100551.41
2023-05-24T12:29:16.759Z,100555.78
2023-05-24T12:31:49.954Z,100553.38
2023-05-24T12:34:19.520Z,100548.13
2023-05-24T12:36:47.729Z,100550.31
2023-05-24T12:39:31.036Z,100550.91
2023-05-24T12:41:58.888Z,100553.81
2023-05-24T12:44:27.158Z,100546.44
2023-05-24T12:46:55.715Z,100553.09
2023-05-24T12:49:23.459Z,100552.88
2023-05-24T12:51:50.554Z,100558.91
2023-05-24T12:54:22.500Z,100553.84
2023-05-24T12:56:49.425Z,100558.69
2023-05-24T12:59:16.484Z,100556.00
2023-05-24T13:01:43.189Z,100557.69
2023-05-24T13:04:11.002Z,100556.84
2023-05-24T13:06:38.169Z,100553.13
2023-05-24T13:09:06.483Z,100551.03
2023-05-24T13:11:33.185Z,100549.56
2023-05-24T13:13:59.850Z,100552.50
2023-05-24T13:16:26.714Z,100552.25
2023-05-24T13:18:53.375Z,100557.22
2023-05-24T13:21:20.562Z,100553.13
2023-05-24T13:23:47.560Z,100550.69
2023-05-24T13:26:14.481Z,100546.44
2023-05-24T13:28:58.611Z,100543.66
2023-05-24T13:31:27.885Z,100557.34
2023-05-24T13:33:54.673Z,100553.56
2023-05-24T13:36:21.229Z,100551.72
2023-05-24T13:38:48.666Z,100543.91
2023-05-24T13:41:17.347Z,100553.38
2023-05-24T13:43:43.863Z,100556.91
2023-05-24T13:46:12.325Z,100547.16
2023-05-24T13:48:39.106Z,100550.00
2023-05-24T13:51:05.726Z,100542.09
2023-05-24T13:53:32.341Z,100544.78
2023-05-24T13:55:58.891Z,100543.66
2023-05-24T13:58:26.128Z,100538.06
2023-05-24T14:00:52.667Z,100531.50
2023-05-24T14:03:19.386Z,100530.00
2023-05-24T14:05:46.143Z,100538.25
2023-05-24T14:08:12.888Z,100533.22
2023-05-24T14:10:39.479Z,100532.56
2023-05-24T14:15:36.665Z,100533.53
2023-05-24T14:18:07.854Z,100543.25
2023-05-24T14:20:38.155Z,100534.50
2023-05-24T14:23:05.325Z,100538.53
2023-05-24T14:25:32.151Z,100541.00
2023-05-24T14:27:59.279Z,100543.59
2023-05-24T14:30:28.656Z,100548.84
2023-05-24T14:32:55.597Z,100545.13
2023-05-24T14:35:22.234Z,100545.03
2023-05-24T14:37:48.826Z,100541.53
2023-05-24T14:40:17.661Z,100546.78
2023-05-24T14:42:45.816Z,100551.78
2023-05-24T14:45:12.788Z,100548.63
2023-05-24T14:47:39.364Z,100551.28
2023-05-24T14:50:06.947Z,100550.06
2023-05-24T14:52:33.499Z,100554.66
2023-05-24T14:54:59.971Z,100548.56
2023-05-24T14:57:26.608Z,100548.66
2023-05-24T14:59:53.163Z,100553.38
2023-05-24T15:02:19.680Z,100552.28
2023-05-24T15:04:46.156Z,100548.63
2023-05-24T15:07:12.782Z,100554.94
2023-05-24T15:09:39.273Z,100554.06
2023-05-24T15:12:07.687Z,100551.81
2023-05-24T15:14:34.495Z,100559.22
2023-05-24T15:17:01.168Z,100549.03
2023-05-24T15:19:28.005Z,100553.91
2023-05-24T15:21:54.694Z,100552.59
2023-05-24T15:24:21.274Z,100543.25
2023-05-24T15:26:48.382Z,100540.84
2023-05-24T15:29:14.961Z,100539.88
2023-05-24T15:31:41.707Z,100534.28
2023-05-24T15:34:08.402Z,100531.97
2023-05-24T15:36:34.924Z,100534.72
2023-05-24T15:39:01.640Z,100534.16
2023-05-24T15:41:28.313Z,100536.75
2023-05-24T15:43:54.911Z,100531.25
2023-05-24T15:46:22.018Z,100536.25
2023-05-24T15:48:48.956Z,100539.41
2023-05-24T15:53:45.523Z,100544.53
2023-05-24T15:56:12.244Z,100545.00
2023-05-24T15:58:38.942Z,100549.09
2023-05-24T16:01:05.821Z,100553.47
2023-05-24T16:03:32.604Z,100544.16
2023-05-24T16:05:59.350Z,100549.94
2023-05-24T16:08:28.005Z,100547.94
2023-05-24T16:10:55.368Z,100553.31
2023-05-24T16:13:22.149Z,100551.06
2023-05-24T16:15:51.598Z,100556.84
2023-05-24T16:18:26.991Z,100549.66
2023-05-24T16:20:53.543Z,100550.38
2023-05-24T16:23:22.815Z,100553.03
2023-05-24T16:25:49.578Z,100542.28
2023-05-24T16:28:16.300Z,100541.16
2023-05-24T16:30:43.662Z,100543.00
2023-05-24T16:33:10.631Z,100540.16
2023-05-24T16:35:37.421Z,100534.66
2023-05-24T16:38:04.011Z,100536.03
2023-05-24T16:40:30.661Z,100532.38
2023-05-24T16:42:57.376Z,100529.41
2023-05-24T16:45:24.168Z,100540.50
2023-05-24T16:47:51.222Z,100531.19
2023-05-24T16:50:17.907Z,100526.22
2023-05-24T16:52:45.041Z,100529.88
2023-05-24T16:55:12.664Z,100525.66
2023-05-24T16:57:39.281Z,100519.72
2023-05-24T17:00:06.794Z,100525.63
2023-05-24T17:02:34.952Z,100524.56
2023-05-24T17:05:01.586Z,100520.78
2023-05-24T17:07:28.212Z,100523.13
2023-05-24T17:09:54.771Z,100528.00
2023-05-24T17:12:21.957Z,100526.00
2023-05-24T17:14:48.778Z,100526.69
2023-05-24T17:17:16.241Z,100519.16
2023-05-24T17:19:42.935Z,100523.25
2023-05-24T17:22:11.260Z,100530.78
2023-05-24T17:24:37.939Z,100526.69
2023-05-24T17:27:05.131Z,100527.78
2023-05-24T17:29:35.016Z,100528.19
2023-05-24T17:32:01.960Z,100523.94
2023-05-24T17:34:28.592Z,100525.28
2023-05-24T17:36:55.170Z,100540.00
2023-05-24T17:39:22.064Z,100538.94
2023-05-24T17:41:48.651Z,100539.59
2023-05-24T17:44:15.336Z,100538.56
2023-05-24T17:46:42.090Z,100542.09
2023-05-24T17:49:08.867Z,100539.34
2023-05-24T17:51:38.866Z,100548.09
2023-05-24T17:54:05.943Z,100544.47
2023-05-24T17:56:32.628Z,100547.19
2023-05-24T17:58:59.198Z,100553.94
2023-05-24T18:01:27.951Z,100548.38
2023-05-24T18:03:54.995Z,100550.56
2023-05-24T18:06:21.665Z,100553.47
2023-05-24T18:08:48.247Z,100547.53
2023-05-24T18:11:15.780Z,100551.19
2023-05-24T18:13:42.948Z,100552.13
2023-05-24T18:16:10.794Z,100554.94
2023-05-24T18:18:41.388Z,100550.44
2023-05-24T18:21:09.567Z,100555.16
2023-05-24T18:23:39.568Z,100552.63
2023-05-24T18:26:08.211Z,100549.25
2023-05-24T18:28:38.628Z,100557.34
2023-05-24T18:31:10.574Z,100562.94
2023-05-24T18:33:38.194Z,100557.00
2023-05-24T18:36:05.856Z,100566.19
2023-05-24T18:38:36.760Z,100566.66
2023-05-24T18:41:06.107Z,100567.03
2023-05-24T18:46:13.133Z,100574.13
2023-05-24T18:48:41.281Z,100573.75
2023-05-24T18:51:07.964Z,100575.94
2023-05-24T18:53:35.844Z,100574.59
2023-05-24T18:56:02.473Z,100583.91
2023-05-24T18:58:29.140Z,100577.31
2023-05-24T19:00:55.806Z,100580.44
2023-05-24T19:03:22.554Z,100580.91
2023-05-24T19:05:49.452Z,100592.84
2023-05-24T19:08:16.077Z,100587.25
2023-05-24T19:10:42.580Z,100597.50
2023-05-24T19:13:09.025Z,100594.44
2023-05-24T19:15:36.623Z,100600.22
2023-05-24T19:18:03.442Z,100605.16
2023-05-24T19:20:30.064Z,100602.94
2023-05-24T19:22:56.580Z,100609.69
2023-05-24T19:25:23.090Z,100603.94
2023-05-24T19:27:59.466Z,100602.69
2023-05-24T19:30:27.378Z,100610.34
2023-05-24T19:32:54.210Z,100607.50
2023-05-24T19:35:20.989Z,100609.81
2023-05-24T19:37:47.597Z,100611.31
2023-05-24T19:40:14.082Z,100621.00
2023-05-24T19:42:40.650Z,100622.69
2023-05-24T19:45:09.283Z,100629.69
2023-05-24T19:47:35.743Z,100632.25
2023-05-24T19:50:03.553Z,100633.09
2023-05-24T19:52:30.043Z,100630.28
2023-05-24T19:54:56.746Z,100636.22
2023-05-24T19:57:23.165Z,100641.19
2023-05-24T19:59:49.798Z,100645.25
2023-05-24T20:02:16.223Z,100645.84
2023-05-24T20:04:43.892Z,100650.78
2023-05-24T20:07:10.911Z,100650.44
2023-05-24T20:09:37.642Z,100653.50
2023-05-24T20:12:04.595Z,100662.78
2023-05-24T20:14:31.226Z,100657.00
2023-05-24T20:16:58.491Z,100662.81
2023-05-24T20:19:26.135Z,100666.78
2023-05-24T20:21:52.765Z,100665.41
2023-05-24T20:24:19.464Z,100667.56
2023-05-24T20:26:46.006Z,100668.81
2023-05-24T20:29:12.667Z,100673.63
2023-05-24T20:31:39.222Z,100675.81
2023-05-24T20:37:03.283Z,100681.94
2023-05-24T20:39:29.968Z,100682.28
2023-05-24T20:41:58.296Z,100677.34
2023-05-24T20:44:25.744Z,100682.06
2023-05-24T20:46:52.437Z,100684.13
2023-05-24T20:49:19.027Z,100689.59
2023-05-24T20:51:45.888Z,100683.66
2023-05-24T20:54:13.879Z,100697.06
2023-05-24T20:56:40.532Z,100694.59
2023-05-24T20:59:07.200Z,100702.69
2023-05-24T21:01:33.917Z,100702.03
2023-05-24T21:04:00.558Z,100698.63
2023-05-24T21:06:27.165Z,100702.22
2023-05-24T21:08:53.806Z,100695.22
2023-05-24T21:11:20.579Z,100697.94
2023-05-24T21:13:47.164Z,100697.94
2023-05-24T21:16:13.728Z,100699.84
2023-05-24T21:18:40.386Z,100704.28
2023-05-24T21:21:07.189Z,100700.88
2023-05-24T21:23:33.886Z,100707.94
2023-05-24T21:26:00.739Z,100713.41
2023-05-24T21:28:27.342Z,100714.44
2023-05-24T21:30:53.950Z,100714.53
2023-05-24T21:33:20.784Z,100717.38
2023-05-24T21:35:47.419Z,100717.53
2023-05-24T21:38:14.095Z,100718.56
2023-05-24T21:40:40.689Z,100715.13
2023-05-24T21:43:12.137Z,100720.56
2023-05-24T21:45:39.295Z,100723.38
2023-05-24T21:48:06.906Z,100719.00
2023-05-24T21:50:34.599Z,100722.56
2023-05-24T21:53:02.008Z,100721.75
2023-05-24T21:55:29.662Z,100725.41
2023-05-24T21:57:56.808Z,100731.63
2023-05-24T22:00:23.713Z,100735.22
2023-05-24T22:02:51.778Z,100734.47
2023-05-24T22:05:19.140Z,100731.91
2023-05-24T22:07:46.079Z,100722.34
2023-05-24T22:10:12.863Z,100733.09
2023-05-24T22:12:39.515Z,100733.38
2023-05-24T22:15:06.570Z,100735.31
2023-05-24T22:17:33.301Z,100736.41
2023-05-24T22:20:04.353Z,100734.88
2023-05-24T22:22:31.002Z,100737.78
2023-05-24T22:24:57.786Z,100741.53
2023-05-24T22:27:24.436Z,100744.41
2023-05-24T22:29:51.128Z,100741.94
2023-05-24T22:32:17.735Z,100743.06
2023-05-24T22:34:44.449Z,100745.06
2023-05-24T22:37:12.554Z,100735.56
2023-05-24T22:39:39.230Z,100743.75
2023-05-24T22:42:05.847Z,100742.97
2023-05-24T22:44:32.388Z,100742.19
2023-05-24T22:47:01.960Z,100745.78
2023-05-24T22:49:29.669Z,100743.22
2023-05-24T22:51:56.295Z,100752.94
2023-05-24T22:54:22.970Z,100738.88
2023-05-24T22:56:49.538Z,100752.09
2023-05-24T22:59:16.105Z,100750.28
2023-05-24T23:01:44.803Z,100745.00
2023-05-24T23:04:21.300Z,100746.69
2023-05-24T23:06:52.630Z,100750.22
2023-05-24T23:09:28.908Z,100750.22
2023-05-24T23:11:58.516Z,100746.69
2023-05-24T23:14:25.528Z,100758.28
2023-05-24T23:16:52.136Z,100755.72
2023-05-24T23:19:19.155Z,100755.03
2023-05-24T23:21:46.253Z,100764.00
2023-05-24T23:24:16.234Z,100756.22
2023-05-24T23:26:43.304Z,100760.81
2023-05-24T23:29:10.263Z,100758.25
2023-05-24T23:31:37.139Z,100757.56
2023-05-24T23:34:04.247Z,100753.19
2023-05-24T23:36:31.262Z,100748.00
2023-05-24T23:38:57.842Z,100752.44
2023-05-24T23:41:24.535Z,100757.72
2023-05-24T23:43:52.516Z,100758.66
2023-05-24T23:46:19.343Z,100763.16
2023-05-24T23:48:46.197Z,100771.16
2023-05-24T23:51:13.055Z,100768.63
2023-05-24T23:53:39.804Z,100766.03
2023-05-24T23:56:06.561Z,100772.25
2023-05-24T23:58:34.014Z,100772.34
